sensor_id;sensor_type;location;lat;lon;timestamp;pressure;altitude;pressure_sealevel;temperature;humidity
17781;BME280;8498;52.516;13.790;2023-02-28T00:04:34;102642.28;;;2.77;79.85
17781;BME280;8498;52.516;13.790;2023-02-28T00:09:56;102645.75;;;2.79;79.70
17781;BME280;8498;52.516;13.790;2023-02-28T00:15:19;102648.34;;;2.81;79.70
17781;BME280;8498;52.516;13.790;2023-02-28T00:20:42;102647.50;;;2.77;79.56
17781;BME280;8498;52.516;13.790;2023-02-28T00:26:05;102648.41;;;2.73;80.08
17781;BME280;8498;52.516;13.790;2023-02-28T00:31:27;102641.44;;;2.65;80.07
17781;BME280;8498;52.516;13.790;2023-02-28T00:36:50;102640.56;;;2.61;79.98
17781;BME280;8498;52.516;13.790;2023-02-28T00:42:13;102645.84;;;2.55;80.12
17781;BME280;8498;52.516;13.790;2023-02-28T00:47:36;102645.88;;;2.49;80.77
17781;BME280;8498;52.516;13.790;2023-02-28T00:52:59;102640.69;;;2.37;81.55
17781;BME280;8498;52.516;13.790;2023-02-28T00:58:21;102650.28;;;2.33;82.03
17781;BME280;8498;52.516;13.790;2023-02-28T01:03:44;102652.91;;;2.32;81.66
17781;BME280;8498;52.516;13.790;2023-02-28T01:09:06;102649.41;;;2.30;81.81
17781;BME280;8498;52.516;13.790;2023-02-28T01:14:29;102645.06;;;2.22;81.71
17781;BME280;8498;52.516;13.790;2023-02-28T01:19:53;102645.97;;;2.09;82.14
17781;BME280;8498;52.516;13.790;2023-02-28T01:25:19;102648.63;;;2.06;82.33
17781;BME280;8498;52.516;13.790;2023-02-28T01:30:42;102632.91;;;1.96;82.97
17781;BME280;8498;52.516;13.790;2023-02-28T01:36:07;102640.75;;;1.88;82.89
17781;BME280;8498;52.516;13.790;2023-02-28T01:41:33;102639.91;;;1.81;82.52
17781;BME280;8498;52.516;13.790;2023-02-28T01:46:56;102632.03;;;1.68;83.09
17781;BME280;8498;52.516;13.790;2023-02-28T01:52:21;102640.78;;;1.55;83.02
17781;BME280;8498;52.516;13.790;2023-02-28T01:57:52;102632.91;;;1.44;83.04
17781;BME280;8498;52.516;13.790;2023-02-28T02:03:18;102630.28;;;1.30;82.88
17781;BME280;8498;52.516;13.790;2023-02-28T02:08:42;102623.28;;;1.17;83.78
17781;BME280;8498;52.516;13.790;2023-02-28T02:19:52;102631.97;;;0.92;84.06
17781;BME280;8498;52.516;13.790;2023-02-28T02:43:05;102637.88;;;0.53;84.38
17781;BME280;8498;52.516;13.790;2023-02-28T02:48:31;102637.88;;;0.48;84.47
17781;BME280;8498;52.516;13.790;2023-02-28T02:54:02;102636.13;;;0.41;84.47
17781;BME280;8498;52.516;13.790;2023-02-28T02:59:28;102642.19;;;0.37;84.99
17781;BME280;8498;52.516;13.790;2023-02-28T03:04:55;102640.38;;;0.24;85.11
17781;BME280;8498;52.516;13.790;2023-02-28T03:10:32;102635.09;;;0.16;84.64
17781;BME280;8498;52.516;13.790;2023-02-28T03:26:55;102639.28;;;-0.12;84.36
17781;BME280;8498;52.516;13.790;2023-02-28T03:32:57;102645.34;;;-0.16;84.14
17781;BME280;8498;52.516;13.790;2023-02-28T03:43:56;102645.25;;;-0.28;85.11
17781;BME280;8498;52.516;13.790;2023-02-28T03:49:24;102659.09;;;-0.37;84.37
17781;BME280;8498;52.516;13.790;2023-02-28T03:54:54;102650.38;;;-0.39;84.36
17781;BME280;8498;52.516;13.790;2023-02-28T04:00:21;102656.38;;;-0.49;85.04
17781;BME280;8498;52.516;13.790;2023-02-28T04:05:53;102655.50;;;-0.49;83.92
17781;BME280;8498;52.516;13.790;2023-02-28T04:16:59;102656.25;;;-0.64;83.85
17781;BME280;8498;52.516;13.790;2023-02-28T04:22:22;102663.09;;;-0.75;82.94
17781;BME280;8498;52.516;13.790;2023-02-28T04:27:44;102665.66;;;-0.80;83.64
17781;BME280;8498;52.516;13.790;2023-02-28T04:33:06;102661.28;;;-0.84;83.90
17781;BME280;8498;52.516;13.790;2023-02-28T04:38:32;102656.91;;;-0.86;83.31
17781;BME280;8498;52.516;13.790;2023-02-28T04:43:54;102669.88;;;-0.91;83.13
17781;BME280;8498;52.516;13.790;2023-02-28T04:49:17;102661.94;;;-1.00;83.20
17781;BME280;8498;52.516;13.790;2023-02-28T04:54:39;102683.69;;;-1.01;83.13
17781;BME280;8498;52.516;13.790;2023-02-28T05:00:02;102675.84;;;-1.01;82.42
17781;BME280;8498;52.516;13.790;2023-02-28T05:05:27;102678.34;;;-1.10;83.03
17781;BME280;8498;52.516;13.790;2023-02-28T05:10:49;102688.78;;;-1.12;82.67
17781;BME280;8498;52.516;13.790;2023-02-28T05:16:12;102681.78;;;-1.16;82.17
17781;BME280;8498;52.516;13.790;2023-02-28T05:21:40;102690.38;;;-1.23;82.73
17781;BME280;8498;52.516;13.790;2023-02-28T05:27:03;102698.16;;;-1.27;82.63
17781;BME280;8498;52.516;13.790;2023-02-28T05:32:25;102698.16;;;-1.27;83.29
17781;BME280;8498;52.516;13.790;2023-02-28T05:37:48;102699.91;;;-1.26;82.09
17781;BME280;8498;52.516;13.790;2023-02-28T05:43:11;102699.03;;;-1.27;82.12
17781;BME280;8498;52.516;13.790;2023-02-28T05:48:35;102698.97;;;-1.30;82.10
17781;BME280;8498;52.516;13.790;2023-02-28T05:53:59;102708.47;;;-1.36;83.21
17781;BME280;8498;52.516;13.790;2023-02-28T05:59:23;102704.97;;;-1.38;83.32
17781;BME280;8498;52.516;13.790;2023-02-28T06:04:45;102705.84;;;-1.38;82.75
17781;BME280;8498;52.516;13.790;2023-02-28T06:10:12;102706.63;;;-1.42;83.05
17781;BME280;8498;52.516;13.790;2023-02-28T06:15:35;102708.47;;;-1.33;82.16
17781;BME280;8498;52.516;13.790;2023-02-28T06:20:57;102718.03;;;-1.35;82.09
17781;BME280;8498;52.516;13.790;2023-02-28T06:26:20;102727.50;;;-1.40;82.34
17781;BME280;8498;52.516;13.790;2023-02-28T06:31:44;102729.31;;;-1.36;82.46
17781;BME280;8498;52.516;13.790;2023-02-28T06:37:07;102733.69;;;-1.32;82.17
17781;BME280;8498;52.516;13.790;2023-02-28T06:42:29;102746.88;;;-1.23;81.73
17781;BME280;8498;52.516;13.790;2023-02-28T06:47:53;102747.81;;;-1.18;81.63
17781;BME280;8498;52.516;13.790;2023-02-28T06:53:15;102743.53;;;-1.13;82.90
17781;BME280;8498;52.516;13.790;2023-02-28T06:58:38;102753.16;;;-1.07;82.20
17781;BME280;8498;52.516;13.790;2023-02-28T07:04:01;102757.63;;;-0.99;82.34
17781;BME280;8498;52.516;13.790;2023-02-28T07:09:23;102758.59;;;-0.91;82.00
17781;BME280;8498;52.516;13.790;2023-02-28T07:14:46;102758.72;;;-0.80;82.61
17781;BME280;8498;52.516;13.790;2023-02-28T07:20:08;102751.00;;;-0.69;82.54
17781;BME280;8498;52.516;13.790;2023-02-28T07:25:31;102751.16;;;-0.57;82.45
17781;BME280;8498;52.516;13.790;2023-02-28T07:30:53;102753.03;;;-0.46;82.37
17781;BME280;8498;52.516;13.790;2023-02-28T07:36:17;102754.88;;;-0.34;81.95
17781;BME280;8498;52.516;13.790;2023-02-28T07:41:40;102753.31;;;-0.17;81.96
17781;BME280;8498;52.516;13.790;2023-02-28T07:47:09;102762.19;;;0.04;81.53
17781;BME280;8498;52.516;13.790;2023-02-28T07:52:31;102764.97;;;0.25;81.24
17781;BME280;8498;52.516;13.790;2023-02-28T07:57:54;102769.50;;;0.47;80.73
17781;BME280;8498;52.516;13.790;2023-02-28T08:03:20;102760.06;;;0.69;80.91
17781;BME280;8498;52.516;13.790;2023-02-28T08:08:42;102756.69;;;0.91;80.06
17781;BME280;8498;52.516;13.790;2023-02-28T08:14:06;102764.66;;;1.14;79.20
17781;BME280;8498;52.516;13.790;2023-02-28T08:19:29;102755.97;;;1.36;78.26
17781;BME280;8498;52.516;13.790;2023-02-28T08:24:51;102760.41;;;1.56;78.08
17781;BME280;8498;52.516;13.790;2023-02-28T08:30:14;102756.94;;;1.87;76.71
17781;BME280;8498;52.516;13.790;2023-02-28T08:35:37;102757.84;;;2.10;76.06
17781;BME280;8498;52.516;13.790;2023-02-28T08:41:01;102763.06;;;2.44;72.93
17781;BME280;8498;52.516;13.790;2023-02-28T08:46:24;102764.78;;;2.60;71.38
17781;BME280;8498;52.516;13.790;2023-02-28T08:51:47;102767.38;;;2.80;70.88
17781;BME280;8498;52.516;13.790;2023-02-28T08:57:09;102762.94;;;2.97;69.30
17781;BME280;8498;52.516;13.790;2023-02-28T09:02:32;102764.63;;;3.12;67.45
17781;BME280;8498;52.516;13.790;2023-02-28T09:07:54;102767.16;;;3.35;63.52
17781;BME280;8498;52.516;13.790;2023-02-28T09:13:17;102770.53;;;3.56;61.13
17781;BME280;8498;52.516;13.790;2023-02-28T09:18:40;102762.53;;;3.78;57.77
17781;BME280;8498;52.516;13.790;2023-02-28T09:24:02;102762.38;;;3.96;55.58
17781;BME280;8498;52.516;13.790;2023-02-28T09:29:25;102762.19;;;4.20;54.16
17781;BME280;8498;52.516;13.790;2023-02-28T09:34:48;102748.03;;;4.35;51.37
17781;BME280;8498;52.516;13.790;2023-02-28T09:40:11;102761.03;;;4.49;51.48
17781;BME280;8498;52.516;13.790;2023-02-28T09:45:39;102762.22;;;5.01;54.46
17781;BME280;8498;52.516;13.790;2023-02-28T09:56:40;102764.25;;;5.50;49.61
17781;BME280;8498;52.516;13.790;2023-02-28T10:02:34;102759.50;;;5.73;48.67
17781;BME280;8498;52.516;13.790;2023-02-28T10:08:03;102767.03;;;6.01;47.79
17781;BME280;8498;52.516;13.790;2023-02-28T10:19:11;102756.34;;;6.59;45.75
17781;BME280;8498;52.516;13.790;2023-02-28T10:30:02;102755.28;;;7.54;43.91
17781;BME280;8498;52.516;13.790;2023-02-28T10:35:26;102749.94;;;7.57;43.00
17781;BME280;8498;52.516;13.790;2023-02-28T10:40:49;102755.88;;;8.03;41.98
17781;BME280;8498;52.516;13.790;2023-02-28T10:46:16;102747.38;;;8.60;42.31
17781;BME280;8498;52.516;13.790;2023-02-28T10:51:55;102734.44;;;8.80;40.97
17781;BME280;8498;52.516;13.790;2023-02-28T10:57:23;102736.84;;;9.19;39.64
17781;BME280;8498;52.516;13.790;2023-02-28T11:02:48;102711.13;;;9.50;39.29
17781;BME280;8498;52.516;13.790;2023-02-28T11:08:16;102710.88;;;9.58;38.88
17781;BME280;8498;52.516;13.790;2023-02-28T11:13:39;102708.47;;;9.23;38.80
17781;BME280;8498;52.516;13.790;2023-02-28T11:19:02;102693.28;;;10.08;38.25
17781;BME280;8498;52.516;13.790;2023-02-28T11:29:50;102709.31;;;9.52;38.71
17781;BME280;8498;52.516;13.790;2023-02-28T11:35:33;102712.06;;;9.49;38.47
17781;BME280;8498;52.516;13.790;2023-02-28T11:41:21;102711.16;;;9.77;38.60
17781;BME280;8498;52.516;13.790;2023-02-28T11:46:59;102708.84;;;9.94;38.11
17781;BME280;8498;52.516;13.790;2023-02-28T11:52:54;102719.66;;;10.14;38.19
17781;BME280;8498;52.516;13.790;2023-02-28T12:04:16;102698.75;;;9.77;37.36
17781;BME280;8498;52.516;13.790;2023-02-28T12:20:47;102676.50;;;9.55;37.52
17781;BME280;8498;52.516;13.790;2023-02-28T12:32:05;102675.81;;;9.48;38.63
17781;BME280;8498;52.516;13.790;2023-02-28T12:43:27;102639.34;;;10.33;37.12
17781;BME280;8498;52.516;13.790;2023-02-28T12:48:55;102619.53;;;10.66;38.03
17781;BME280;8498;52.516;13.790;2023-02-28T13:00:22;102605.28;;;10.44;37.32
17781;BME280;8498;52.516;13.790;2023-02-28T13:11:50;102609.94;;;10.12;43.39
17781;BME280;8498;52.516;13.790;2023-02-28T13:17:18;102610.66;;;10.17;38.03
17781;BME280;8498;52.516;13.790;2023-02-28T13:22:44;102604.53;;;10.87;38.79
17781;BME280;8498;52.516;13.790;2023-02-28T13:28:12;102608.63;;;10.49;38.13
17781;BME280;8498;52.516;13.790;2023-02-28T13:56:05;102598.25;;;10.43;37.04
17781;BME280;8498;52.516;13.790;2023-02-28T14:01:47;102587.47;;;10.47;37.82
17781;BME280;8498;52.516;13.790;2023-02-28T14:07:26;102589.31;;;10.45;37.01
17781;BME280;8498;52.516;13.790;2023-02-28T14:18:35;102593.25;;;9.57;37.99
17781;BME280;8498;52.516;13.790;2023-02-28T14:41:32;102580.91;;;9.30;38.94
17781;BME280;8498;52.516;13.790;2023-02-28T14:46:59;102579.88;;;8.80;38.90
17781;BME280;8498;52.516;13.790;2023-02-28T14:52:29;102581.06;;;8.70;40.19
17781;BME280;8498;52.516;13.790;2023-02-28T14:57:58;102579.78;;;8.52;40.79
17781;BME280;8498;52.516;13.790;2023-02-28T15:03:33;102575.22;;;8.26;41.35
17781;BME280;8498;52.516;13.790;2023-02-28T15:09:17;102575.88;;;7.69;42.77
17781;BME280;8498;52.516;13.790;2023-02-28T15:14:43;102561.28;;;7.55;43.19
17781;BME280;8498;52.516;13.790;2023-02-28T15:20:14;102565.31;;;7.35;43.16
17781;BME280;8498;52.516;13.790;2023-02-28T15:25:37;102558.81;;;7.13;44.16
17781;BME280;8498;52.516;13.790;2023-02-28T15:31:03;102562.59;;;7.02;44.12
17781;BME280;8498;52.516;13.790;2023-02-28T15:36:39;102562.16;;;6.83;44.10
17781;BME280;8498;52.516;13.790;2023-02-28T15:42:12;102561.38;;;6.78;44.60
17781;BME280;8498;52.516;13.790;2023-02-28T15:47:35;102567.69;;;6.72;45.33
17781;BME280;8498;52.516;13.790;2023-02-28T15:53:00;102558.25;;;6.60;45.48
17781;BME280;8498;52.516;13.790;2023-02-28T15:58:24;102565.56;;;6.48;46.53
17781;BME280;8498;52.516;13.790;2023-02-28T16:03:49;102566.59;;;6.41;46.26
17781;BME280;8498;52.516;13.790;2023-02-28T16:09:16;102579.34;;;6.20;47.21
17781;BME280;8498;52.516;13.790;2023-02-28T16:14:39;102562.81;;;6.11;47.27
17781;BME280;8498;52.516;13.790;2023-02-28T16:20:16;102566.75;;;5.85;48.12
17781;BME280;8498;52.516;13.790;2023-02-28T16:25:41;102575.03;;;5.66;49.33
17781;BME280;8498;52.516;13.790;2023-02-28T16:31:06;102577.97;;;5.49;50.56
17781;BME280;8498;52.516;13.790;2023-02-28T16:36:30;102568.03;;;5.09;51.46
17781;BME280;8498;52.516;13.790;2023-02-28T16:41:53;102567.75;;;4.69;52.84
17781;BME280;8498;52.516;13.790;2023-02-28T16:47:15;102568.13;;;4.42;53.19
17781;BME280;8498;52.516;13.790;2023-02-28T16:52:38;102573.69;;;4.16;54.45
17781;BME280;8498;52.516;13.790;2023-02-28T16:58:02;102575.66;;;3.99;56.44
17781;BME280;8498;52.516;13.790;2023-02-28T17:03:27;102579.53;;;3.63;57.48
17781;BME280;8498;52.516;13.790;2023-02-28T17:08:56;102577.03;;;3.46;58.03
17781;BME280;8498;52.516;13.790;2023-02-28T17:14:19;102582.44;;;3.26;59.24
17781;BME280;8498;52.516;13.790;2023-02-28T17:19:43;102584.34;;;3.02;60.72
17781;BME280;8498;52.516;13.790;2023-02-28T17:25:08;102590.59;;;2.82;61.73
17781;BME280;8498;52.516;13.790;2023-02-28T17:30:33;102589.00;;;2.58;63.42
17781;BME280;8498;52.516;13.790;2023-02-28T17:35:55;102593.44;;;2.43;64.27
17781;BME280;8498;52.516;13.790;2023-02-28T17:41:19;102587.38;;;2.21;65.59
17781;BME280;8498;52.516;13.790;2023-02-28T17:46:41;102593.50;;;2.21;65.20
17781;BME280;8498;52.516;13.790;2023-02-28T17:52:04;102596.16;;;2.11;65.80
17781;BME280;8498;52.516;13.790;2023-02-28T17:57:26;102595.31;;;2.07;65.67
17781;BME280;8498;52.516;13.790;2023-02-28T18:02:49;102592.72;;;1.97;66.43
17781;BME280;8498;52.516;13.790;2023-02-28T18:08:12;102600.59;;;1.80;67.98
17781;BME280;8498;52.516;13.790;2023-02-28T18:13:35;102593.59;;;1.67;68.85
17781;BME280;8498;52.516;13.790;2023-02-28T18:18:57;102612.84;;;1.66;69.06
17781;BME280;8498;52.516;13.790;2023-02-28T18:24:21;102609.31;;;1.67;68.46
17781;BME280;8498;52.516;13.790;2023-02-28T18:29:44;102622.44;;;1.48;68.95
17781;BME280;8498;52.516;13.790;2023-02-28T18:35:06;102622.44;;;1.35;69.86
17781;BME280;8498;52.516;13.790;2023-02-28T18:40:29;102625.06;;;1.33;69.96
17781;BME280;8498;52.516;13.790;2023-02-28T18:45:52;102633.75;;;1.22;70.22
17781;BME280;8498;52.516;13.790;2023-02-28T18:51:25;102636.38;;;1.22;69.96
17781;BME280;8498;52.516;13.790;2023-02-28T18:56:49;102635.47;;;1.15;70.27
17781;BME280;8498;52.516;13.790;2023-02-28T19:02:11;102627.66;;;1.14;69.84
17781;BME280;8498;52.516;13.790;2023-02-28T19:07:34;102621.50;;;1.01;70.50
17781;BME280;8498;52.516;13.790;2023-02-28T19:12:57;102622.38;;;0.92;71.64
17781;BME280;8498;52.516;13.790;2023-02-28T19:18:19;102618.84;;;0.87;71.63
17781;BME280;8498;52.516;13.790;2023-02-28T19:23:42;102636.28;;;0.87;71.42
17781;BME280;8498;52.516;13.790;2023-02-28T19:29:05;102626.66;;;0.78;72.82
17781;BME280;8498;52.516;13.790;2023-02-28T19:34:27;102628.41;;;0.71;72.60
17781;BME280;8498;52.516;13.790;2023-02-28T19:39:49;102630.16;;;0.71;73.27
17781;BME280;8498;52.516;13.790;2023-02-28T19:45:15;102618.75;;;0.63;73.24
17781;BME280;8498;52.516;13.790;2023-02-28T19:50:38;102617.88;;;0.56;73.16
17781;BME280;8498;52.516;13.790;2023-02-28T19:56:02;102613.50;;;0.51;73.98
17781;BME280;8498;52.516;13.790;2023-02-28T20:01:25;102625.66;;;0.43;73.61
17781;BME280;8498;52.516;13.790;2023-02-28T20:06:48;102632.59;;;0.34;73.89
17781;BME280;8498;52.516;13.790;2023-02-28T20:12:10;102627.28;;;0.24;75.10
17781;BME280;8498;52.516;13.790;2023-02-28T20:17:45;102633.38;;;0.20;75.60
17781;BME280;8498;52.516;13.790;2023-02-28T20:23:08;102626.38;;;0.16;75.97
17781;BME280;8498;52.516;13.790;2023-02-28T20:28:30;102630.69;;;0.11;76.22
17781;BME280;8498;52.516;13.790;2023-02-28T20:33:53;102623.69;;;-0.01;77.01
17781;BME280;8498;52.516;13.790;2023-02-28T20:39:15;102615.00;;;0.05;76.01
17781;BME280;8498;52.516;13.790;2023-02-28T20:44:38;102614.09;;;-0.01;75.93
17781;BME280;8498;52.516;13.790;2023-02-28T20:50:00;102612.28;;;-0.08;75.97
17781;BME280;8498;52.516;13.790;2023-02-28T20:55:23;102606.16;;;-0.16;76.25
17781;BME280;8498;52.516;13.790;2023-02-28T21:00:45;102610.47;;;-0.24;77.71
17781;BME280;8498;52.516;13.790;2023-02-28T21:06:10;102605.22;;;-0.24;77.27
17781;BME280;8498;52.516;13.790;2023-02-28T21:11:34;102604.31;;;-0.29;76.82
17781;BME280;8498;52.516;13.790;2023-02-28T21:16:57;102611.25;;;-0.31;77.14
17781;BME280;8498;52.516;13.790;2023-02-28T21:22:19;102607.72;;;-0.38;77.02
17781;BME280;8498;52.516;13.790;2023-02-28T21:27:42;102612.03;;;-0.46;77.55
17781;BME280;8498;52.516;13.790;2023-02-28T21:33:04;102607.59;;;-0.54;78.09
17781;BME280;8498;52.516;13.790;2023-02-28T21:38:26;102605.78;;;-0.61;78.37
17781;BME280;8498;52.516;13.790;2023-02-28T21:43:50;102612.72;;;-0.66;79.03
17781;BME280;8498;52.516;13.790;2023-02-28T21:49:13;102615.47;;;-0.53;78.27
17781;BME280;8498;52.516;13.790;2023-02-28T21:54:36;102612.78;;;-0.57;77.89
17781;BME280;8498;52.516;13.790;2023-02-28T21:59:58;102606.66;;;-0.65;77.87
17781;BME280;8498;52.516;13.790;2023-02-28T22:05:22;102614.41;;;-0.73;77.79
17781;BME280;8498;52.516;13.790;2023-02-28T22:10:45;102618.69;;;-0.80;78.06
17781;BME280;8498;52.516;13.790;2023-02-28T22:16:09;102622.09;;;-0.87;78.36
17781;BME280;8498;52.516;13.790;2023-02-28T22:21:37;102634.19;;;-0.95;79.47
17781;BME280;8498;52.516;13.790;2023-02-28T22:27:00;102632.38;;;-1.02;79.63
17781;BME280;8498;52.516;13.790;2023-02-28T22:32:23;102641.09;;;-1.00;80.06
17781;BME280;8498;52.516;13.790;2023-02-28T22:37:46;102638.44;;;-1.01;79.54
17781;BME280;8498;52.516;13.790;2023-02-28T22:43:09;102639.41;;;-0.93;78.94
17781;BME280;8498;52.516;13.790;2023-02-28T22:48:33;102628.91;;;-0.99;79.11
17781;BME280;8498;52.516;13.790;2023-02-28T22:53:57;102635.78;;;-1.07;79.53
17781;BME280;8498;52.516;13.790;2023-02-28T22:59:20;102653.03;;;-1.20;79.67
17781;BME280;8498;52.516;13.790;2023-02-28T23:04:43;102653.03;;;-1.20;79.86
17781;BME280;8498;52.516;13.790;2023-02-28T23:10:07;102667.84;;;-1.18;79.76
17781;BME280;8498;52.516;13.790;2023-02-28T23:15:30;102678.16;;;-1.28;80.14
17781;BME280;8498;52.516;13.790;2023-02-28T23:20:55;102667.75;;;-1.24;80.07
17781;BME280;8498;52.516;13.790;2023-02-28T23:26:18;102678.94;;;-1.35;80.78
17781;BME280;8498;52.516;13.790;2023-02-28T23:31:41;102666.69;;;-1.39;80.22
17781;BME280;8498;52.516;13.790;2023-02-28T23:37:03;102660.56;;;-1.43;79.19
17781;BME280;8498;52.516;13.790;2023-02-28T23:42:26;102648.28;;;-1.52;79.67
17781;BME280;8498;52.516;13.790;2023-02-28T23:47:48;102648.28;;;-1.52;79.94
17781;BME280;8498;52.516;13.790;2023-02-28T23:53:11;102636.91;;;-1.60;80.06
17781;BME280;8498;52.516;13.790;2023-02-28T23:58:33;102643.75;;;-1.68;80.45
